Time;durP1;ratioP1;P1;durP2;ratioP2;P2;SDS_P1;SDS_P2;PMS_P1;PMS_P2;Temp;Humidity;BMP_temperature;BMP_pressure;BME280_temperature;BME280_humidity;BME280_pressure;Samples;Min_cycle;Max_cycle;Signal;HPM_P1;HPM_P2
2023/09/28 00:01:59;;;;;;;3.70;3.40;;;22.10;63.90;23.10;100638.00;;;;5023585;28;20222;-52
2023/09/28 00:04:25;;;;;;;3.23;3.03;;;22.20;63.90;23.00;100620.00;;;;5018795;28;20183;-52
2023/09/28 00:06:51;;;;;;;3.50;3.07;;;22.20;63.50;23.00;100618.00;;;;5008461;28;20249;-53
2023/09/28 00:09:17;;;;;;;3.50;3.20;;;22.10;63.50;23.00;100632.00;;;;5008354;28;20242;-53
2023/09/28 00:11:44;;;;;;;3.47;3.17;;;22.20;63.70;23.00;100618.00;;;;5009241;28;20681;-56
2023/09/28 00:14:10;;;;;;;3.53;3.23;;;22.10;63.50;23.00;100623.00;;;;5005103;28;20766;-52
2023/09/28 00:16:36;;;;;;;3.30;3.00;;;22.10;63.50;23.00;100632.00;;;;5022965;28;20190;-52
2023/09/28 00:19:02;;;;;;;3.33;3.10;;;22.10;63.40;23.00;100644.00;;;;5016687;28;20195;-48
2023/09/28 00:21:28;;;;;;;3.33;3.10;;;22.10;63.50;23.00;100656.00;;;;5007312;28;20286;-48
2023/09/28 00:23:54;;;;;;;3.70;3.40;;;22.10;63.50;22.80;100657.00;;;;5008565;28;20195;-48
2023/09/28 00:26:19;;;;;;;3.50;3.20;;;22.10;63.40;23.00;100674.00;;;;5008386;28;20186;-48
2023/09/28 00:28:45;;;;;;;3.40;3.00;;;22.20;63.50;23.00;100689.00;;;;5006485;28;20259;-47
2023/09/28 00:31:13;;;;;;;3.10;2.90;;;22.20;63.50;23.00;100663.00;;;;5008060;28;20215;-47
2023/09/28 00:33:38;;;;;;;3.97;3.10;;;22.20;63.50;23.10;100688.00;;;;5008017;28;20611;-47
2023/09/28 00:36:04;;;;;;;3.33;3.03;;;22.20;63.40;23.10;100699.00;;;;5007855;28;20226;-48
2023/09/28 00:38:30;;;;;;;3.20;3.00;;;22.30;63.50;23.10;100699.00;;;;5009468;28;20202;-48
2023/09/28 00:40:56;;;;;;;3.40;3.20;;;22.20;63.30;23.10;100702.00;;;;5011547;28;20700;-47
2023/09/28 00:43:25;;;;;;;3.40;3.10;;;22.20;63.30;23.10;100708.00;;;;5011804;28;20194;-47
2023/09/28 00:45:51;;;;;;;3.13;2.90;;;22.30;63.40;23.10;100677.00;;;;5011769;28;20175;-48
2023/09/28 00:48:17;;;;;;;3.20;3.00;;;22.30;63.50;23.10;100705.00;;;;5010307;28;20202;-48
2023/09/28 00:50:42;;;;;;;3.50;3.03;;;22.20;63.50;23.10;100709.00;;;;5011371;28;20226;-47
2023/09/28 00:53:08;;;;;;;3.20;2.90;;;22.30;63.50;22.90;100704.00;;;;5011484;28;20273;-47
2023/09/28 00:55:36;;;;;;;3.27;2.90;;;22.30;63.50;23.10;100714.00;;;;5010321;28;20290;-47
2023/09/28 00:58:03;;;;;;;3.20;2.90;;;22.30;63.40;23.10;100700.00;;;;5010194;28;20237;-47
2023/09/28 01:00:33;;;;;;;3.07;2.87;;;22.30;63.50;23.10;100696.00;;;;5011254;28;20274;-49
2023/09/28 01:03:02;;;;;;;3.60;3.30;;;22.30;63.70;23.10;100684.00;;;;5011507;28;20200;-48
2023/09/28 01:05:33;;;;;;;3.37;3.07;;;22.20;63.50;22.90;100688.00;;;;5010096;28;20198;-48
2023/09/28 01:08:26;;;;;;;2.97;2.77;;;22.30;63.60;23.10;100694.00;;;;5011493;28;20183;-47
2023/09/28 01:10:52;;;;;;;3.33;3.03;;;22.20;63.40;23.10;100691.00;;;;5009285;28;20721;-47
2023/09/28 01:13:23;;;;;;;3.10;2.90;;;22.20;63.20;23.00;100669.00;;;;5011059;28;20199;-48
2023/09/28 01:15:51;;;;;;;3.30;3.10;;;22.20;63.50;23.00;100681.00;;;;5011151;28;20591;-47
2023/09/28 01:18:19;;;;;;;3.37;3.07;;;22.10;63.20;23.00;100678.00;;;;5009834;28;20275;-47
2023/09/28 01:20:46;;;;;;;3.27;2.97;;;22.10;63.30;22.90;100675.00;;;;5011056;28;20211;-47
2023/09/28 01:23:13;;;;;;;3.17;2.93;;;22.00;63.40;22.90;100681.00;;;;5009706;28;20206;-47
2023/09/28 01:25:39;;;;;;;3.23;2.93;;;22.10;63.50;22.90;100668.00;;;;5009523;28;20230;-47
2023/09/28 01:28:06;;;;;;;3.47;3.17;;;22.10;63.30;22.90;100661.00;;;;5010698;28;20184;-47
2023/09/28 01:30:32;;;;;;;3.03;2.83;;;22.00;63.40;22.90;100654.00;;;;5011179;28;20191;-48
2023/09/28 01:32:57;;;;;;;3.50;3.20;;;21.90;63.30;22.80;100650.00;;;;5011025;28;20557;-48
2023/09/28 01:35:23;;;;;;;3.80;3.10;;;21.90;63.30;22.80;100677.00;;;;5011025;28;20535;-48
2023/09/28 01:37:49;;;;;;;3.50;3.20;;;21.90;63.50;22.80;100659.00;;;;5010673;28;20188;-48
2023/09/28 01:40:16;;;;;;;3.60;3.30;;;21.90;63.60;22.80;100651.00;;;;5010694;28;20654;-47
2023/09/28 01:42:42;;;;;;;3.37;3.03;;;21.80;63.50;22.70;100655.00;;;;5010624;28;20264;-46
2023/09/28 01:45:08;;;;;;;3.20;3.00;;;21.90;63.60;22.70;100655.00;;;;5010852;28;20215;-47
2023/09/28 01:47:34;;;;;;;3.50;3.20;;;21.80;63.60;22.70;100663.00;;;;5011197;28;20207;-48
2023/09/28 01:50:00;;;;;;;3.20;2.90;;;21.80;63.60;22.70;100660.00;;;;5008204;28;20683;-48
2023/09/28 01:52:26;;;;;;;3.33;3.00;;;21.80;63.50;22.70;100655.00;;;;5011043;28;20207;-52
2023/09/28 01:54:52;;;;;;;3.50;3.20;;;21.90;63.70;22.70;100662.00;;;;5009145;28;20298;-52
2023/09/28 01:57:18;;;;;;;3.10;2.90;;;21.90;63.60;22.80;100661.00;;;;5010204;28;20855;-51
2023/09/28 01:59:43;;;;;;;3.13;2.93;;;22.00;63.40;22.70;100659.00;;;;5010209;28;20208;-51
2023/09/28 02:02:10;;;;;;;3.43;3.13;;;22.00;63.40;22.80;100667.00;;;;5017328;28;20211;-52
2023/09/28 02:04:39;;;;;;;4.97;3.23;;;22.00;63.40;22.80;100648.00;;;;5028485;28;20290;-51
2023/09/28 02:07:04;;;;;;;3.27;3.00;;;22.00;63.40;22.80;100668.00;;;;4993120;28;20234;-51
2023/09/28 02:09:33;;;;;;;3.57;3.27;;;22.00;63.30;22.80;100668.00;;;;5010635;28;20411;-48
2023/09/28 02:12:00;;;;;;;3.10;2.90;;;22.00;64.10;22.80;100670.00;;;;5010723;28;20195;-47
2023/09/28 02:14:26;;;;;;;3.47;3.17;;;22.00;63.40;22.80;100682.00;;;;5011244;28;20207;-47
2023/09/28 02:16:52;;;;;;;3.37;3.07;;;22.00;63.20;22.80;100677.00;;;;5016605;28;20214;-48
2023/09/28 02:19:18;;;;;;;3.07;2.87;;;22.10;63.30;22.90;100676.00;;;;5025621;28;20287;-47
2023/09/28 02:21:44;;;;;;;3.50;3.20;;;22.10;63.20;22.90;100685.00;;;;5008812;28;20203;-48
2023/09/28 02:24:10;;;;;;;3.43;3.13;;;22.10;63.30;22.90;100679.00;;;;5010196;28;20634;-48
2023/09/28 02:26:36;;;;;;;3.50;3.20;;;22.10;63.40;22.80;100682.00;;;;5009899;28;20196;-48
2023/09/28 02:29:02;;;;;;;3.23;2.90;;;22.10;63.30;22.90;100684.00;;;;5009519;28;20211;-47
2023/09/28 02:31:28;;;;;;;3.43;3.13;;;22.00;63.40;22.80;100689.00;;;;5009692;28;20215;-48
2023/09/28 02:33:54;;;;;;;3.50;3.00;;;22.00;63.40;22.80;100690.00;;;;5010017;28;20188;-48
2023/09/28 02:36:20;;;;;;;3.00;2.80;;;22.00;63.40;22.80;100690.00;;;;5009770;28;20187;-47
2023/09/28 02:38:47;;;;;;;3.30;3.00;;;22.00;63.40;22.80;100708.00;;;;5009415;28;20518;-48
2023/09/28 02:41:19;;;;;;;3.23;3.03;;;22.00;63.40;22.80;100697.00;;;;5009546;28;20203;-48
2023/09/28 02:43:45;;;;;;;3.20;2.90;;;22.00;63.50;22.80;100704.00;;;;5009630;28;20180;-47
2023/09/28 02:46:11;;;;;;;3.33;3.03;;;22.00;63.70;22.80;100696.00;;;;5009401;28;20189;-47
2023/09/28 02:48:37;;;;;;;3.47;3.17;;;22.00;63.90;22.80;100693.00;;;;5009063;28;20187;-47
2023/09/28 02:51:10;;;;;;;3.13;2.90;;;21.90;63.90;22.80;100700.00;;;;5009244;28;20677;-48
2023/09/28 02:53:36;;;;;;;3.30;3.00;;;21.90;63.90;22.70;100703.00;;;;5009346;28;20210;-48
2023/09/28 02:56:03;;;;;;;3.80;3.20;;;21.90;63.90;22.70;100709.00;;;;5009134;28;20285;-49
2023/09/28 02:58:29;;;;;;;3.10;2.90;;;21.90;64.00;22.70;100701.00;;;;5009332;28;20294;-47
2023/09/28 03:00:56;;;;;;;3.67;3.03;;;21.90;64.00;22.70;100705.00;;;;5010002;28;20282;-50
2023/09/28 03:03:23;;;;;;;2.87;2.67;;;21.90;64.00;22.70;100698.00;;;;5011113;28;20631;-48
2023/09/28 03:05:54;;;;;;;3.20;2.90;;;22.00;64.20;22.70;100705.00;;;;5012904;28;20219;-48
2023/09/28 03:08:20;;;;;;;3.30;3.00;;;21.90;64.00;22.70;100700.00;;;;5010518;28;20249;-47
2023/09/28 03:10:46;;;;;;;3.00;2.80;;;22.00;64.00;22.80;100714.00;;;;5010158;28;20183;-48
2023/09/28 03:13:12;;;;;;;3.67;2.90;;;22.00;63.80;22.80;100708.00;;;;5010324;28;20207;-47
2023/09/28 03:15:41;;;;;;;3.47;3.00;;;22.00;63.70;22.80;100704.00;;;;5010172;28;20203;-48
2023/09/28 03:18:06;;;;;;;3.50;3.20;;;22.00;63.70;22.80;100710.00;;;;5010337;28;20191;-48
2023/09/28 03:20:32;;;;;;;3.10;2.90;;;22.00;63.80;22.80;100713.00;;;;5009372;28;20211;-48
2023/09/28 03:22:58;;;;;;;3.27;2.97;;;22.10;63.80;22.80;100721.00;;;;5009492;28;20214;-48
2023/09/28 03:25:24;;;;;;;3.27;2.97;;;22.10;63.70;22.80;100724.00;;;;5009341;28;20261;-49
2023/09/28 03:27:51;;;;;;;3.37;3.07;;;22.10;63.80;22.80;100716.00;;;;5009832;28;20365;-48
2023/09/28 03:30:19;;;;;;;3.37;3.07;;;22.10;63.80;22.80;100730.00;;;;5009942;28;20241;-49
2023/09/28 03:32:48;;;;;;;3.13;2.90;;;22.00;63.70;22.80;100727.00;;;;5009502;28;20265;-48
2023/09/28 03:35:15;;;;;;;4.63;3.00;;;22.00;63.80;22.80;100731.00;;;;5009647;28;20646;-48
2023/09/28 03:37:41;;;;;;;3.27;2.87;;;22.00;64.10;22.80;100733.00;;;;5009326;28;20194;-48
2023/09/28 03:40:10;;;;;;;6.13;3.03;;;22.00;64.30;22.80;100742.00;;;;5009678;28;20199;-47
2023/09/28 03:42:56;;;;;;;3.80;2.87;;;22.00;64.30;22.80;100737.00;;;;5009448;28;20261;-48
2023/09/28 03:45:22;;;;;;;3.40;2.90;;;22.00;64.10;22.80;100735.00;;;;5008341;28;20195;-47
2023/09/28 03:47:52;;;;;;;3.20;2.90;;;22.10;64.20;22.80;100738.00;;;;5009454;28;20208;-48
2023/09/28 03:50:17;;;;;;;3.20;2.97;;;22.10;64.10;22.80;100741.00;;;;5008684;28;20191;-48
2023/09/28 03:52:46;;;;;;;3.27;2.80;;;22.10;64.10;22.80;100742.00;;;;5009651;28;20265;-47
2023/09/28 03:55:18;;;;;;;4.00;3.10;;;22.00;64.30;22.80;100745.00;;;;5009613;28;20187;-47
2023/09/28 03:57:44;;;;;;;3.40;3.00;;;22.00;64.40;22.80;100749.00;;;;5009696;28;20187;-48
2023/09/28 04:00:13;;;;;;;3.03;2.83;;;21.90;64.50;22.70;100747.00;;;;5008422;28;20207;-47
2023/09/28 04:02:47;;;;;;;3.40;3.10;;;22.00;64.70;22.70;100743.00;;;;5011766;28;20219;-48
2023/09/28 04:05:13;;;;;;;3.20;3.00;;;21.90;64.40;22.70;100743.00;;;;5032138;28;20543;-49
2023/09/28 04:07:39;;;;;;;3.43;3.13;;;21.90;64.20;22.70;100747.00;;;;5009286;28;20186;-48
2023/09/28 04:10:06;;;;;;;3.07;2.83;;;22.00;64.30;22.70;100752.00;;;;5008613;28;20175;-47
2023/09/28 04:12:32;;;;;;;3.37;3.07;;;22.00;64.30;22.80;100744.00;;;;4994728;28;20210;-49
2023/09/28 04:14:58;;;;;;;3.47;3.17;;;22.00;64.30;22.80;100748.00;;;;5014001;28;20187;-48
2023/09/28 04:17:24;;;;;;;3.57;3.10;;;22.00;64.30;22.50;100753.00;;;;5014521;28;20186;-49
2023/09/28 04:19:50;;;;;;;3.50;3.20;;;22.00;64.30;22.70;100748.00;;;;5024635;28;20207;-48
2023/09/28 04:22:16;;;;;;;3.10;2.90;;;22.00;64.30;22.70;100762.00;;;;5013269;28;20298;-49
2023/09/28 04:24:42;;;;;;;3.00;2.80;;;22.00;64.40;22.70;100759.00;;;;5013361;28;20179;-47
2023/09/28 04:27:08;;;;;;;4.00;3.00;;;21.90;64.20;22.70;100774.00;;;;5007817;28;20187;-48
2023/09/28 04:29:35;;;;;;;2.93;2.73;;;22.00;64.30;22.70;100774.00;;;;5011047;28;20179;-48
2023/09/28 04:32:01;;;;;;;4.73;2.97;;;21.90;64.20;22.70;100774.00;;;;5012005;28;20212;-48
2023/09/28 04:34:27;;;;;;;3.17;2.87;;;22.00;64.30;22.70;100769.00;;;;5011009;28;20183;-48
2023/09/28 04:36:53;;;;;;;3.40;3.10;;;21.90;64.20;22.70;100775.00;;;;5012455;28;20233;-48
2023/09/28 04:39:18;;;;;;;3.20;2.83;;;22.00;64.70;22.70;100773.00;;;;4995124;28;20597;-51
2023/09/28 04:41:45;;;;;;;3.50;3.20;;;21.90;64.30;22.70;100762.00;;;;5012216;28;20331;-51
2023/09/28 04:44:11;;;;;;;3.73;3.20;;;21.90;64.30;22.70;100763.00;;;;5012500;28;20642;-51
2023/09/28 04:46:37;;;;;;;6.20;3.30;;;21.90;64.30;22.70;100771.00;;;;5012158;28;20192;-60
2023/09/28 04:49:03;;;;;;;3.70;3.40;;;21.90;64.30;22.70;100773.00;;;;5013255;28;20188;-51
2023/09/28 04:51:29;;;;;;;6.40;3.70;;;21.90;64.50;22.70;100791.00;;;;5011479;28;20212;-51
2023/09/28 04:53:54;;;;;;;4.23;3.57;;;21.90;64.50;22.70;100786.00;;;;5012040;28;20248;-51
2023/09/28 04:56:20;;;;;;;3.83;3.43;;;21.90;64.50;22.70;100785.00;;;;5011220;28;20275;-52
2023/09/28 04:58:46;;;;;;;3.97;3.63;;;21.90;65.00;22.70;100789.00;;;;5011923;28;20554;-52
2023/09/28 05:01:12;;;;;;;5.90;4.03;;;21.90;64.90;22.70;100784.00;;;;5011318;28;20235;-53
2023/09/28 05:03:38;;;;;;;3.93;3.63;;;21.90;64.80;22.70;100784.00;;;;5011164;28;20230;-52
2023/09/28 05:06:05;;;;;;;4.27;3.70;;;21.90;64.70;22.60;100787.00;;;;5012678;28;20183;-52
2023/09/28 05:08:31;;;;;;;4.00;3.60;;;21.90;64.70;22.60;100770.00;;;;5011407;28;20647;-52
2023/09/28 05:10:57;;;;;;;4.27;3.63;;;21.90;64.70;22.60;100792.00;;;;5011006;28;20278;-52
2023/09/28 05:13:24;;;;;;;4.27;3.60;;;21.90;64.90;22.60;100793.00;;;;5011804;28;20266;-53
2023/09/28 05:15:49;;;;;;;6.30;4.00;;;21.80;65.00;22.60;100800.00;;;;5008777;28;20264;-52
2023/09/28 05:18:15;;;;;;;7.63;4.03;;;21.80;65.20;22.60;100794.00;;;;5011765;28;20714;-52
2023/09/28 05:20:41;;;;;;;5.07;3.67;;;21.80;65.30;22.60;100794.00;;;;5011454;28;20602;-52
2023/09/28 05:23:07;;;;;;;5.27;3.77;;;21.80;65.30;22.60;100801.00;;;;5011310;28;20234;-52
2023/09/28 05:25:35;;;;;;;4.23;3.43;;;21.80;65.40;22.60;100809.00;;;;5011617;28;20195;-52
2023/09/28 05:28:02;;;;;;;3.80;3.47;;;21.80;65.60;22.50;100811.00;;;;5010947;28;20187;-53
2023/09/28 05:30:28;;;;;;;4.10;3.70;;;21.80;65.50;22.50;100807.00;;;;5010570;28;20249;-52
2023/09/28 05:32:54;;;;;;;3.70;3.40;;;21.70;65.50;22.50;100811.00;;;;5010269;28;20619;-52
2023/09/28 05:35:21;;;;;;;3.67;3.37;;;21.70;65.50;22.50;100797.00;;;;5011953;28;20698;-52
2023/09/28 05:37:47;;;;;;;3.80;3.50;;;21.70;65.80;22.50;100801.00;;;;5011535;28;20554;-52
2023/09/28 05:40:13;;;;;;;4.20;3.80;;;21.70;65.80;22.40;100803.00;;;;5011144;28;20266;-52
2023/09/28 05:42:40;;;;;;;4.90;3.60;;;21.60;65.70;22.40;100790.00;;;;5009862;28;20856;-52
2023/09/28 05:45:06;;;;;;;4.83;3.60;;;21.70;65.80;22.40;100787.00;;;;5011222;28;20599;-52
2023/09/28 05:47:33;;;;;;;3.87;3.50;;;21.70;65.80;22.40;100787.00;;;;5011020;28;20763;-53
2023/09/28 05:49:59;;;;;;;4.10;3.70;;;21.60;65.70;22.20;100793.00;;;;5011051;28;20183;-52
2023/09/28 05:52:25;;;;;;;4.07;3.67;;;21.60;65.70;22.40;100799.00;;;;5010758;28;20196;-52
2023/09/28 05:54:51;;;;;;;4.17;3.50;;;21.70;65.80;22.40;100791.00;;;;5010777;28;20570;-52
2023/09/28 05:57:16;;;;;;;4.80;3.37;;;21.60;65.60;22.40;100805.00;;;;5010990;28;20191;-52
2023/09/28 05:59:42;;;;;;;3.70;3.40;;;21.60;65.70;22.30;100805.00;;;;5010722;28;20210;-53
2023/09/28 06:02:09;;;;;;;3.90;3.50;;;21.70;65.80;22.40;100817.00;;;;5010445;28;20204;-52
2023/09/28 06:04:35;;;;;;;3.80;3.50;;;21.60;65.80;22.30;100827.00;;;;5010246;28;20267;-53
2023/09/28 06:07:00;;;;;;;3.80;3.50;;;21.60;65.90;22.30;100837.00;;;;5028766;28;20168;-53
2023/09/28 06:09:26;;;;;;;3.80;3.50;;;21.60;65.80;22.30;100850.00;;;;5014904;28;20692;-53
2023/09/28 06:11:55;;;;;;;3.53;3.23;;;21.60;65.80;22.30;100850.00;;;;5010927;28;20214;-51
2023/09/28 06:14:21;;;;;;;4.10;3.43;;;21.60;65.80;22.30;100859.00;;;;5011577;28;20263;-53
2023/09/28 06:16:46;;;;;;;3.90;3.57;;;21.50;65.80;22.30;100794.00;;;;5011724;28;20254;-52
2023/09/28 06:19:12;;;;;;;4.07;3.30;;;21.50;65.80;22.30;100865.00;;;;5010681;28;20191;-53
2023/09/28 06:21:41;;;;;;;3.60;3.30;;;21.50;65.70;22.30;100863.00;;;;5023059;28;20212;-57
2023/09/28 06:24:07;;;;;;;3.23;3.03;;;21.60;65.90;22.30;100868.00;;;;5014434;28;20211;-52
2023/09/28 06:26:33;;;;;;;3.50;3.20;;;21.50;65.80;22.30;100878.00;;;;5010613;28;20172;-52
2023/09/28 06:28:59;;;;;;;3.50;3.20;;;21.50;65.90;22.30;100870.00;;;;5010604;28;20180;-53
2023/09/28 06:31:25;;;;;;;4.30;3.70;;;21.50;65.80;22.30;100872.00;;;;5009922;28;20207;-52
2023/09/28 06:33:51;;;;;;;3.80;3.50;;;21.50;66.00;22.20;100872.00;;;;5010589;28;20233;-52
2023/09/28 06:36:18;;;;;;;4.63;3.50;;;21.50;66.00;22.30;100883.00;;;;5008425;28;20202;-52
2023/09/28 06:38:44;;;;;;;3.90;3.50;;;21.50;66.00;22.20;100880.00;;;;5010191;28;20198;-53
2023/09/28 06:41:09;;;;;;;3.80;3.50;;;21.50;66.10;22.20;100883.00;;;;5010405;28;20203;-52
2023/09/28 06:43:35;;;;;;;3.90;3.50;;;21.50;66.20;22.20;100869.00;;;;5010740;28;20274;-52
2023/09/28 06:46:01;;;;;;;3.67;3.37;;;21.50;66.30;22.20;100870.00;;;;5006413;28;20219;-52
2023/09/28 06:48:28;;;;;;;4.70;3.70;;;21.50;66.20;22.20;100882.00;;;;5009263;28;20676;-52
2023/09/28 06:50:57;;;;;;;3.70;3.40;;;21.50;66.20;22.20;100887.00;;;;5010191;28;20194;-53
2023/09/28 06:53:24;;;;;;;6.43;3.50;;;21.50;66.30;22.20;100886.00;;;;5010054;28;20228;-52
2023/09/28 06:55:50;;;;;;;3.77;3.47;;;21.40;66.20;22.20;100889.00;;;;5011460;28;20191;-53
2023/09/28 06:58:17;;;;;;;3.77;3.40;;;21.50;66.50;22.20;100888.00;;;;5012890;28;20184;-52
2023/09/28 07:00:44;;;;;;;3.70;3.40;;;21.40;66.40;22.20;100897.00;;;;5012901;28;20567;-52
2023/09/28 07:03:09;;;;;;;6.60;3.70;;;21.50;66.50;22.20;100914.00;;;;5010041;28;20196;-53
2023/09/28 07:05:36;;;;;;;4.27;3.50;;;21.40;66.40;22.20;100911.00;;;;5009650;28;20600;-53
2023/09/28 07:08:05;;;;;;;3.87;3.50;;;21.40;66.50;22.20;100914.00;;;;5009794;28;20226;-52
2023/09/28 07:10:34;;;;;;;5.27;3.77;;;21.50;66.70;22.20;100913.00;;;;5009934;28;20211;-53
2023/09/28 07:13:02;;;;;;;5.73;3.60;;;21.40;66.60;22.20;100920.00;;;;5009473;28;20242;-52
2023/09/28 07:15:31;;;;;;;4.90;3.73;;;21.50;66.70;22.20;100922.00;;;;5021934;28;20203;-52
2023/09/28 07:17:57;;;;;;;4.23;3.80;;;21.50;66.70;22.20;100920.00;;;;5008870;28;20250;-53
2023/09/28 07:20:25;;;;;;;3.70;3.40;;;21.50;67.50;22.20;100918.00;;;;5008259;28;20725;-53
2023/09/28 07:22:51;;;;;;;4.13;3.70;;;21.50;66.60;22.20;100920.00;;;;5005571;28;20203;-52
2023/09/28 07:25:17;;;;;;;4.40;3.83;;;21.50;66.60;22.20;100924.00;;;;5010365;28;20246;-53
2023/09/28 07:27:43;;;;;;;4.40;3.47;;;21.50;66.60;22.20;100926.00;;;;5009762;28;20215;-53
2023/09/28 07:30:11;;;;;;;3.97;3.60;;;21.50;66.60;22.20;100929.00;;;;5009822;28;20198;-53
2023/09/28 07:32:37;;;;;;;5.10;3.77;;;21.50;66.60;22.20;100918.00;;;;5009608;28;20210;-53
2023/09/28 07:35:04;;;;;;;3.97;3.57;;;21.50;67.40;22.20;100922.00;;;;5010229;28;20415;-53
2023/09/28 07:37:31;;;;;;;4.30;3.90;;;21.50;66.70;22.20;100935.00;;;;5009910;28;20410;-53
2023/09/28 07:39:56;;;;;;;4.13;3.73;;;21.50;67.60;22.20;100933.00;;;;5009698;28;20203;-53
2023/09/28 07:42:23;;;;;;;5.90;3.90;;;21.50;66.70;22.20;100933.00;;;;5009830;28;20199;-53
2023/09/28 07:44:51;;;;;;;4.50;4.10;;;21.50;66.70;22.20;100930.00;;;;5009664;28;20187;-54
2023/09/28 07:47:19;;;;;;;4.57;3.93;;;21.50;66.70;22.20;100929.00;;;;5009387;28;20230;-53
2023/09/28 07:49:46;;;;;;;4.77;3.90;;;21.50;66.80;22.20;100946.00;;;;5009599;28;20226;-53
2023/09/28 07:52:11;;;;;;;6.23;3.87;;;21.50;66.80;22.20;100951.00;;;;5009460;28;20199;-53
2023/09/28 07:54:37;;;;;;;4.40;4.00;;;21.50;66.90;22.20;100956.00;;;;5009639;28;20179;-53
2023/09/28 07:57:04;;;;;;;5.70;4.13;;;21.40;67.60;22.10;100955.00;;;;5009492;28;20179;-52
2023/09/28 07:59:34;;;;;;;4.30;3.90;;;21.30;68.40;22.10;100958.00;;;;5009347;28;20180;-51
2023/09/28 08:02:04;;;;;;;4.10;3.70;;;21.30;68.40;22.10;100961.00;;;;5009301;28;20635;-52
2023/09/28 08:04:30;;;;;;;4.30;3.90;;;21.30;68.40;22.00;100961.00;;;;5009614;28;20187;-52
2023/09/28 08:06:57;;;;;;;4.80;4.30;;;21.30;69.00;22.00;100965.00;;;;5009732;28;20559;-52
2023/09/28 08:09:23;;;;;;;4.30;3.90;;;21.30;69.80;22.00;100960.00;;;;5030286;28;20255;-53
2023/09/28 08:11:52;;;;;;;4.23;3.77;;;21.20;69.30;22.00;100971.00;;;;5011279;28;20225;-52
2023/09/28 08:14:18;;;;;;;4.27;3.83;;;21.30;69.20;22.00;100950.00;;;;5009213;28;20191;-52
2023/09/28 08:16:47;;;;;;;3.77;3.47;;;21.30;68.90;22.10;100952.00;;;;5008037;28;20210;-53
2023/09/28 08:19:12;;;;;;;4.40;3.80;;;21.30;68.80;22.10;100944.00;;;;5007856;28;20254;-52
2023/09/28 08:21:38;;;;;;;4.50;4.10;;;21.40;68.70;22.10;100945.00;;;;5008655;28;20215;-53
2023/09/28 08:24:05;;;;;;;4.27;3.87;;;21.40;68.70;22.10;100939.00;;;;5019563;28;20182;-60
2023/09/28 08:26:31;;;;;;;4.30;3.90;;;21.40;69.00;22.10;100936.00;;;;5013025;28;20180;-52
2023/09/28 08:29:00;;;;;;;4.93;4.00;;;21.40;69.10;22.10;100948.00;;;;5012271;28;20176;-52
2023/09/28 08:31:30;;;;;;;5.30;4.00;;;21.40;69.00;22.10;100952.00;;;;5009186;28;20242;-52
2023/09/28 08:33:56;;;;;;;4.40;4.00;;;21.40;69.30;22.10;100947.00;;;;5009196;28;20275;-52
2023/09/28 08:36:22;;;;;;;4.57;4.17;;;21.40;69.30;22.10;100946.00;;;;5009298;28;20258;-53
2023/09/28 08:38:48;;;;;;;5.03;4.00;;;21.40;69.40;22.10;100956.00;;;;5009026;28;20824;-52
2023/09/28 08:41:16;;;;;;;6.30;4.50;;;21.40;69.60;22.10;100953.00;;;;5008941;28;20207;-52
2023/09/28 08:43:43;;;;;;;4.97;4.00;;;21.40;69.90;22.10;100969.00;;;;5008819;28;20187;-52
2023/09/28 08:46:13;;;;;;;4.97;4.20;;;21.40;70.10;22.10;100973.00;;;;4991555;28;20242;-52
2023/09/28 08:48:47;;;;;;;6.83;4.57;;;21.40;70.50;22.10;100984.00;;;;5008801;28;20167;-53
2023/09/28 08:51:12;;;;;;;5.77;4.40;;;21.40;70.90;22.10;100979.00;;;;5007705;28;20198;-52
2023/09/28 08:53:38;;;;;;;4.80;4.30;;;21.40;70.90;22.10;100982.00;;;;5008878;28;20274;-52
2023/09/28 08:56:07;;;;;;;6.57;4.73;;;21.40;72.00;22.10;100980.00;;;;5009305;28;20275;-52
2023/09/28 08:58:36;;;;;;;5.87;4.30;;;21.30;71.80;22.10;100996.00;;;;5010439;28;20184;-52
2023/09/28 09:01:03;;;;;;;4.40;4.00;;;21.30;71.80;22.10;100985.00;;;;5012149;28;20218;-52
2023/09/28 09:03:31;;;;;;;7.77;4.60;;;21.40;71.90;22.10;100994.00;;;;5012496;28;20646;-52
2023/09/28 09:05:57;;;;;;;5.97;4.10;;;21.30;72.10;22.10;100985.00;;;;5011287;28;20266;-52
2023/09/28 09:08:23;;;;;;;6.07;4.20;;;21.30;72.60;22.10;100997.00;;;;5011338;28;20279;-52
2023/09/28 09:10:51;;;;;;;6.17;4.87;;;21.30;73.00;22.00;101005.00;;;;5012434;28;20191;-52
2023/09/28 09:13:18;;;;;;;5.40;4.47;;;21.30;73.50;22.00;101002.00;;;;5012363;28;20203;-52
2023/09/28 09:15:44;;;;;;;6.50;4.33;;;21.30;73.40;22.00;100996.00;;;;5014049;28;20184;-52
2023/09/28 09:18:18;;;;;;;5.23;4.43;;;21.30;73.70;22.00;100999.00;;;;5012630;28;20191;-52
2023/09/28 09:20:46;;;;;;;5.90;4.27;;;21.30;73.80;22.00;101005.00;;;;4996194;28;21207;-52
2023/09/28 09:23:16;;;;;;;6.40;4.20;;;21.30;73.70;22.00;101003.00;;;;5012856;28;20290;-52
2023/09/28 09:25:43;;;;;;;6.17;4.30;;;21.30;74.20;22.00;100997.00;;;;5012168;28;20564;-51
2023/09/28 09:28:13;;;;;;;6.23;4.73;;;21.30;73.80;22.00;100990.00;;;;5012028;28;20187;-52
2023/09/28 09:30:39;;;;;;;7.97;4.70;;;21.30;74.20;22.00;101007.00;;;;5010862;28;20219;-52
2023/09/28 09:33:08;;;;;;;4.97;4.30;;;21.20;74.30;22.00;101000.00;;;;5010964;28;20203;-52
2023/09/28 09:35:34;;;;;;;6.00;4.30;;;21.30;74.30;22.00;101025.00;;;;5011786;28;20314;-52
2023/09/28 09:37:59;;;;;;;6.93;4.60;;;21.30;74.00;22.10;101008.00;;;;5012009;28;20187;-52
2023/09/28 09:40:25;;;;;;;7.10;4.00;;;21.30;73.90;22.10;101004.00;;;;5011931;28;20200;-52
2023/09/28 09:42:51;;;;;;;5.27;4.17;;;21.30;74.20;22.10;101009.00;;;;5011749;28;20213;-52
2023/09/28 09:45:19;;;;;;;4.97;4.10;;;21.30;74.30;22.10;100988.00;;;;5010745;28;20222;-52
2023/09/28 09:47:47;;;;;;;4.83;4.17;;;21.30;73.90;22.10;101005.00;;;;4993797;28;20199;-53
2023/09/28 09:50:14;;;;;;;5.40;4.57;;;21.30;74.30;22.10;101018.00;;;;5011919;28;20179;-52
2023/09/28 09:52:42;;;;;;;7.33;4.50;;;21.30;74.70;22.10;101017.00;;;;5011336;28;20286;-52
2023/09/28 09:55:08;;;;;;;10.07;4.97;;;21.40;74.90;22.20;101007.00;;;;4994267;28;20188;-53
2023/09/28 09:57:38;;;;;;;12.23;5.47;;;21.40;74.60;22.20;101016.00;;;;5010332;28;20241;-53
2023/09/28 10:00:08;;;;;;;12.67;5.03;;;21.40;74.50;22.20;101001.00;;;;4978354;28;20239;-53
2023/09/28 10:02:36;;;;;;;8.87;4.70;;;21.40;74.50;22.20;101006.00;;;;4993789;28;20720;-51
2023/09/28 10:05:02;;;;;;;11.97;4.70;;;21.40;74.40;22.20;100999.00;;;;5010367;28;20215;-52
2023/09/28 10:07:32;;;;;;;8.03;4.43;;;21.40;74.30;22.30;101003.00;;;;4994014;28;20211;-52
2023/09/28 10:09:58;;;;;;;7.30;4.23;;;21.50;74.10;22.30;101000.00;;;;5010339;28;20191;-51
2023/09/28 10:12:25;;;;;;;12.60;4.40;;;21.50;74.10;22.30;101003.00;;;;4995415;28;20253;-51
2023/09/28 10:14:52;;;;;;;6.93;4.27;;;21.50;74.10;22.30;101009.00;;;;5011805;28;20187;-53
2023/09/28 10:17:18;;;;;;;8.40;4.47;;;21.50;74.20;22.40;101004.00;;;;5012058;28;20187;-53
2023/09/28 10:19:44;;;;;;;9.17;4.37;;;21.50;73.90;22.40;101007.00;;;;4993601;28;20195;-52
2023/09/28 10:22:12;;;;;;;7.30;3.97;;;21.50;73.70;22.40;101010.00;;;;5005208;28;20701;-52
2023/09/28 10:24:38;;;;;;;7.23;4.27;;;21.50;73.60;22.40;101009.00;;;;5027115;28;20176;-51
2023/09/28 10:27:10;;;;;;;7.03;4.40;;;21.50;73.60;22.40;101006.00;;;;5012996;28;20989;-52
2023/09/28 10:29:36;;;;;;;9.07;4.40;;;21.60;73.80;22.40;101011.00;;;;5008370;28;20755;-52
2023/09/28 10:32:30;;;;;;;5.10;3.90;;;21.50;73.60;22.40;101021.00;;;;5010432;28;20206;-52
2023/09/28 10:35:27;;;;;;;5.37;3.63;;;21.60;73.70;22.50;101025.00;;;;5009315;28;20179;-52
2023/09/28 10:38:21;;;;;;;6.67;4.30;;;21.50;73.50;22.50;101023.00;;;;5010230;28;20229;-52
2023/09/28 10:41:00;;;;;;;6.03;3.97;;;21.50;73.50;22.40;101011.00;;;;5010231;28;20278;-48
2023/09/28 10:43:42;;;;;;;6.03;3.93;;;21.60;73.40;22.50;100999.00;;;;5010972;28;20290;-50
2023/09/28 10:46:08;;;;;;;6.53;4.10;;;21.60;73.50;22.50;100995.00;;;;5012840;28;20183;-48
2023/09/28 10:48:41;;;;;;;7.40;3.73;;;21.60;73.70;22.50;100998.00;;;;4995425;28;20191;-48